sensor_id;sensor_type;location;lat;lon;timestamp;pressure;altitude;pressure_sealevel;temperature;humidity
73455;BME280;61690;51.824;6.306;2023-04-26T00:01:19;101808.81;;;17.08;48.50
73455;BME280;61690;51.824;6.306;2023-04-26T00:03:46;101803.69;;;17.05;48.32
73455;BME280;61690;51.824;6.306;2023-04-26T00:06:12;101809.81;;;17.05;48.38
73455;BME280;61690;51.824;6.306;2023-04-26T00:08:39;101804.59;;;17.04;48.69
73455;BME280;61690;51.824;6.306;2023-04-26T00:11:06;101802.97;;;17.01;48.47
73455;BME280;61690;51.824;6.306;2023-04-26T00:13:31;101804.59;;;17.04;48.57
73455;BME280;61690;51.824;6.306;2023-04-26T00:15:57;101808.16;;;17.03;48.62
73455;BME280;61690;51.824;6.306;2023-04-26T00:18:22;101811.91;;;16.97;48.79
73455;BME280;61690;51.824;6.306;2023-04-26T00:20:47;101809.19;;;16.99;48.65
73455;BME280;61690;51.824;6.306;2023-04-26T00:23:13;101811.84;;;16.99;48.41
73455;BME280;61690;51.824;6.306;2023-04-26T00:25:39;101811.91;;;16.97;48.68
73455;BME280;61690;51.824;6.306;2023-04-26T00:28:04;101812.09;;;16.93;48.84
73455;BME280;61690;51.824;6.306;2023-04-26T00:30:30;101806.72;;;16.96;48.61
73455;BME280;61690;51.824;6.306;2023-04-26T00:32:56;101812.03;;;16.94;48.58
73455;BME280;61690;51.824;6.306;2023-04-26T00:35:21;101816.50;;;16.92;48.50
73455;BME280;61690;51.824;6.306;2023-04-26T00:37:48;101804.28;;;16.91;48.39
73455;BME280;61690;51.824;6.306;2023-04-26T00:40:13;101802.53;;;16.92;48.43
73455;BME280;61690;51.824;6.306;2023-04-26T00:42:40;101807.00;;;16.90;48.73
73455;BME280;61690;51.824;6.306;2023-04-26T00:45:06;101797.28;;;16.92;48.62
73455;BME280;61690;51.824;6.306;2023-04-26T00:47:34;101799.13;;;16.90;48.29
73455;BME280;61690;51.824;6.306;2023-04-26T00:50:00;101796.56;;;16.88;48.54
73455;BME280;61690;51.824;6.306;2023-04-26T00:52:26;101800.16;;;16.85;48.66
73455;BME280;61690;51.824;6.306;2023-04-26T00:54:55;101794.03;;;16.85;48.80
73455;BME280;61690;51.824;6.306;2023-04-26T00:57:20;101789.56;;;16.87;48.51
73455;BME280;61690;51.824;6.306;2023-04-26T00:59:46;101797.63;;;16.84;48.41
73455;BME280;61690;51.824;6.306;2023-04-26T01:02:12;101792.41;;;16.82;48.43
73455;BME280;61690;51.824;6.306;2023-04-26T01:04:37;101790.56;;;16.84;48.22
73455;BME280;61690;51.824;6.306;2023-04-26T01:07:06;101796.81;;;16.82;48.29
73455;BME280;61690;51.824;6.306;2023-04-26T01:09:32;101797.69;;;16.81;48.66
73455;BME280;61690;51.824;6.306;2023-04-26T01:11:58;101794.28;;;16.79;48.55
73455;BME280;61690;51.824;6.306;2023-04-26T01:14:24;101798.75;;;16.77;48.69
73455;BME280;61690;51.824;6.306;2023-04-26T01:16:50;101797.13;;;16.74;48.72
73455;BME280;61690;51.824;6.306;2023-04-26T01:19:16;101812.75;;;16.77;48.67
73455;BME280;61690;51.824;6.306;2023-04-26T01:21:42;101801.59;;;16.72;48.65
73455;BME280;61690;51.824;6.306;2023-04-26T01:24:09;101810.31;;;16.73;48.88
73455;BME280;61690;51.824;6.306;2023-04-26T01:26:35;101805.06;;;16.73;48.74
73455;BME280;61690;51.824;6.306;2023-04-26T01:29:15;101805.19;;;16.70;48.88
73455;BME280;61690;51.824;6.306;2023-04-26T01:31:40;101805.34;;;16.66;48.65
73455;BME280;61690;51.824;6.306;2023-04-26T01:34:06;101806.19;;;16.67;48.58
73455;BME280;61690;51.824;6.306;2023-04-26T01:36:31;101808.66;;;16.70;48.23
73455;BME280;61690;51.824;6.306;2023-04-26T01:38:56;101806.13;;;16.69;48.40
73455;BME280;61690;51.824;6.306;2023-04-26T01:41:22;101801.06;;;16.64;48.75
73455;BME280;61690;51.824;6.306;2023-04-26T01:43:48;101811.50;;;16.65;48.87
73455;BME280;61690;51.824;6.306;2023-04-26T01:46:13;101806.31;;;16.64;48.46
73455;BME280;61690;51.824;6.306;2023-04-26T01:48:39;101804.63;;;16.63;48.46
73455;BME280;61690;51.824;6.306;2023-04-26T01:51:04;101802.88;;;16.62;48.75
73455;BME280;61690;51.824;6.306;2023-04-26T01:53:30;101799.41;;;16.61;48.49
73455;BME280;61690;51.824;6.306;2023-04-26T01:55:56;101803.81;;;16.61;48.82
73455;BME280;61690;51.824;6.306;2023-04-26T01:58:21;101808.28;;;16.59;48.69
73455;BME280;61690;51.824;6.306;2023-04-26T02:00:46;101808.28;;;16.59;48.39
73455;BME280;61690;51.824;6.306;2023-04-26T02:03:12;101808.19;;;16.60;48.36
73455;BME280;61690;51.824;6.306;2023-04-26T02:05:38;101811.94;;;16.55;48.49
73455;BME280;61690;51.824;6.306;2023-04-26T02:08:04;101805.91;;;16.53;48.74
73455;BME280;61690;51.824;6.306;2023-04-26T02:10:30;101806.78;;;16.53;48.79
73455;BME280;61690;51.824;6.306;2023-04-26T02:12:56;101805.06;;;16.52;48.59
73455;BME280;61690;51.824;6.306;2023-04-26T02:15:21;101810.38;;;16.51;48.81
73455;BME280;61690;51.824;6.306;2023-04-26T02:17:47;101803.22;;;16.54;48.57
73455;BME280;61690;51.824;6.306;2023-04-26T02:20:13;101807.69;;;16.52;48.73
73455;BME280;61690;51.824;6.306;2023-04-26T02:22:39;101802.47;;;16.51;48.59
73455;BME280;61690;51.824;6.306;2023-04-26T02:25:04;101806.00;;;16.51;48.53
73455;BME280;61690;51.824;6.306;2023-04-26T02:27:30;101801.66;;;16.50;48.54
73455;BME280;61690;51.824;6.306;2023-04-26T02:29:56;101803.38;;;16.51;48.39
73455;BME280;61690;51.824;6.306;2023-04-26T02:32:22;101796.59;;;16.45;48.74
73455;BME280;61690;51.824;6.306;2023-04-26T02:34:48;101798.22;;;16.48;48.46
73455;BME280;61690;51.824;6.306;2023-04-26T02:37:13;101799.13;;;16.47;48.48
73455;BME280;61690;51.824;6.306;2023-04-26T02:39:39;101804.66;;;16.41;48.84
73455;BME280;61690;51.824;6.306;2023-04-26T02:42:09;101804.53;;;16.44;48.68
73455;BME280;61690;51.824;6.306;2023-04-26T02:44:35;101799.34;;;16.42;48.67
73455;BME280;61690;51.824;6.306;2023-04-26T02:47:01;101801.19;;;16.40;48.60
73455;BME280;61690;51.824;6.306;2023-04-26T02:49:29;101795.00;;;16.41;48.51
73455;BME280;61690;51.824;6.306;2023-04-26T02:51:55;101799.41;;;16.41;48.52
73455;BME280;61690;51.824;6.306;2023-04-26T02:54:20;101800.44;;;16.37;48.41
73455;BME280;61690;51.824;6.306;2023-04-26T02:56:45;101796.97;;;16.36;48.67
73455;BME280;61690;51.824;6.306;2023-04-26T02:59:11;101793.50;;;16.36;48.78
73455;BME280;61690;51.824;6.306;2023-04-26T03:01:36;101791.66;;;16.38;48.52
73455;BME280;61690;51.824;6.306;2023-04-26T03:04:01;101788.31;;;16.34;48.72
73455;BME280;61690;51.824;6.306;2023-04-26T03:06:27;101795.13;;;16.38;48.56
73455;BME280;61690;51.824;6.306;2023-04-26T03:08:55;101789.50;;;16.48;48.37
73455;BME280;61690;51.824;6.306;2023-04-26T03:11:20;101789.81;;;16.60;48.22
73455;BME280;61690;51.824;6.306;2023-04-26T03:13:45;101792.66;;;16.76;47.76
73455;BME280;61690;51.824;6.306;2023-04-26T03:16:11;101794.50;;;16.95;47.26
73455;BME280;61690;51.824;6.306;2023-04-26T03:18:37;101794.69;;;17.11;47.15
73455;BME280;61690;51.824;6.306;2023-04-26T03:21:03;101801.94;;;17.24;46.77
73455;BME280;61690;51.824;6.306;2023-04-26T03:23:28;101790.84;;;17.37;46.56
73455;BME280;61690;51.824;6.306;2023-04-26T03:25:53;101791.38;;;17.45;46.52
73455;BME280;61690;51.824;6.306;2023-04-26T03:28:19;101797.13;;;17.53;46.36
73455;BME280;61690;51.824;6.306;2023-04-26T03:30:45;101793.28;;;17.60;45.94
73455;BME280;61690;51.824;6.306;2023-04-26T03:33:11;101786.66;;;17.71;45.80
73455;BME280;61690;51.824;6.306;2023-04-26T03:35:37;101789.16;;;17.74;45.88
73455;BME280;61690;51.824;6.306;2023-04-26T03:38:02;101787.00;;;17.82;45.46
73455;BME280;61690;51.824;6.306;2023-04-26T03:40:28;101785.00;;;17.87;45.41
73455;BME280;61690;51.824;6.306;2023-04-26T03:42:54;101783.03;;;17.92;45.04
73455;BME280;61690;51.824;6.306;2023-04-26T03:45:19;101784.44;;;17.99;45.49
73455;BME280;61690;51.824;6.306;2023-04-26T03:47:44;101787.72;;;18.05;44.89
73455;BME280;61690;51.824;6.306;2023-04-26T03:50:10;101777.00;;;18.08;44.72
73455;BME280;61690;51.824;6.306;2023-04-26T03:52:36;101780.41;;;18.10;45.30
73455;BME280;61690;51.824;6.306;2023-04-26T03:55:03;101770.44;;;18.16;45.02
73455;BME280;61690;51.824;6.306;2023-04-26T03:57:28;101773.69;;;18.21;44.73
73455;BME280;61690;51.824;6.306;2023-04-26T03:59:54;101776.09;;;18.26;44.63
73455;BME280;61690;51.824;6.306;2023-04-26T04:02:19;101775.00;;;18.30;44.45
73455;BME280;61690;51.824;6.306;2023-04-26T04:04:45;101774.16;;;18.30;44.90
73455;BME280;61690;51.824;6.306;2023-04-26T04:07:10;101775.94;;;18.29;44.43
73455;BME280;61690;51.824;6.306;2023-04-26T04:09:36;101775.78;;;18.32;44.35
73455;BME280;61690;51.824;6.306;2023-04-26T04:12:03;101768.66;;;18.34;44.42
73455;BME280;61690;51.824;6.306;2023-04-26T04:14:28;101774.47;;;18.41;44.52
73455;BME280;61690;51.824;6.306;2023-04-26T04:16:53;101771.47;;;18.49;44.05
73455;BME280;61690;51.824;6.306;2023-04-26T04:19:20;101774.88;;;18.51;44.06
73455;BME280;61690;51.824;6.306;2023-04-26T04:21:45;101777.25;;;18.55;43.93
73455;BME280;61690;51.824;6.306;2023-04-26T04:24:10;101784.25;;;18.56;43.67
73455;BME280;61690;51.824;6.306;2023-04-26T04:26:36;101795.31;;;18.63;43.77
73455;BME280;61690;51.824;6.306;2023-04-26T04:29:02;101789.88;;;18.66;43.83
73455;BME280;61690;51.824;6.306;2023-04-26T04:31:34;101781.09;;;18.66;44.34
73455;BME280;61690;51.824;6.306;2023-04-26T04:33:59;101786.31;;;18.67;44.13
73455;BME280;61690;51.824;6.306;2023-04-26T04:36:25;101787.06;;;18.69;44.24
73455;BME280;61690;51.824;6.306;2023-04-26T04:38:51;101785.13;;;18.73;44.15
73455;BME280;61690;51.824;6.306;2023-04-26T04:41:17;101790.34;;;18.74;44.51
73455;BME280;61690;51.824;6.306;2023-04-26T04:43:48;101797.94;;;18.80;44.31
73455;BME280;61690;51.824;6.306;2023-04-26T04:46:13;101792.06;;;18.93;44.23
73455;BME280;61690;51.824;6.306;2023-04-26T04:48:40;101794.22;;;18.85;44.79
73455;BME280;61690;51.824;6.306;2023-04-26T04:51:05;101790.00;;;18.98;44.96
73455;BME280;61690;51.824;6.306;2023-04-26T04:53:33;101795.63;;;19.08;44.63
73455;BME280;61690;51.824;6.306;2023-04-26T04:55:58;101786.31;;;19.18;44.64
73455;BME280;61690;51.824;6.306;2023-04-26T04:58:25;101804.38;;;19.26;45.12
73455;BME280;61690;51.824;6.306;2023-04-26T05:00:50;101795.28;;;19.31;45.34
73455;BME280;61690;51.824;6.306;2023-04-26T05:03:18;101802.16;;;19.34;45.44
73455;BME280;61690;51.824;6.306;2023-04-26T05:05:47;101800.56;;;19.31;45.36
73455;BME280;61690;51.824;6.306;2023-04-26T05:08:14;101805.56;;;19.36;45.18
73455;BME280;61690;51.824;6.306;2023-04-26T05:10:39;101798.59;;;19.35;45.56
73455;BME280;61690;51.824;6.306;2023-04-26T05:13:06;101804.66;;;19.37;45.49
73455;BME280;61690;51.824;6.306;2023-04-26T05:15:32;101798.81;;;19.14;45.34
73455;BME280;61690;51.824;6.306;2023-04-26T05:17:58;101805.50;;;19.04;45.47
73455;BME280;61690;51.824;6.306;2023-04-26T05:20:24;101802.28;;;18.99;45.18
73455;BME280;61690;51.824;6.306;2023-04-26T05:22:50;101812.63;;;19.02;44.92
73455;BME280;61690;51.824;6.306;2023-04-26T05:25:16;101808.75;;;19.09;45.56
73455;BME280;61690;51.824;6.306;2023-04-26T05:27:42;101807.84;;;19.10;44.70
73455;BME280;61690;51.824;6.306;2023-04-26T05:30:10;101811.97;;;18.98;44.15
73455;BME280;61690;51.824;6.306;2023-04-26T05:32:37;101813.22;;;18.91;43.91
73455;BME280;61690;51.824;6.306;2023-04-26T05:35:03;101812.97;;;18.96;43.57
73455;BME280;61690;51.824;6.306;2023-04-26T05:37:29;101816.22;;;19.01;44.14
73455;BME280;61690;51.824;6.306;2023-04-26T05:39:55;101814.50;;;19.00;44.67
73455;BME280;61690;51.824;6.306;2023-04-26T05:42:21;101822.53;;;18.98;44.35
73455;BME280;61690;51.824;6.306;2023-04-26T05:44:47;101831.59;;;18.93;44.41
73455;BME280;61690;51.824;6.306;2023-04-26T05:47:12;101827.25;;;18.92;44.27
73455;BME280;61690;51.824;6.306;2023-04-26T05:49:38;101834.53;;;18.87;44.67
73455;BME280;61690;51.824;6.306;2023-04-26T05:52:03;101827.63;;;18.84;44.77
73455;BME280;61690;51.824;6.306;2023-04-26T05:54:30;101835.78;;;18.79;44.41
73455;BME280;61690;51.824;6.306;2023-04-26T05:56:55;101830.63;;;18.76;44.76
73455;BME280;61690;51.824;6.306;2023-04-26T05:59:22;101837.78;;;18.74;44.58
73455;BME280;61690;51.824;6.306;2023-04-26T06:01:48;101838.78;;;18.72;44.84
73455;BME280;61690;51.824;6.306;2023-04-26T06:04:13;101840.88;;;18.65;44.65
73455;BME280;61690;51.824;6.306;2023-04-26T06:06:39;101838.25;;;18.65;44.88
73455;BME280;61690;51.824;6.306;2023-04-26T06:09:04;101840.34;;;18.58;44.51
73455;BME280;61690;51.824;6.306;2023-04-26T06:11:29;101844.91;;;18.55;44.75
73455;BME280;61690;51.824;6.306;2023-04-26T06:13:55;101835.47;;;18.51;44.66
73455;BME280;61690;51.824;6.306;2023-04-26T06:16:21;101840.56;;;18.54;45.14
73455;BME280;61690;51.824;6.306;2023-04-26T06:18:46;101837.78;;;18.57;45.63
73455;BME280;61690;51.824;6.306;2023-04-26T06:21:12;101838.63;;;18.57;45.54
73455;BME280;61690;51.824;6.306;2023-04-26T06:23:40;101840.34;;;18.58;45.65
73455;BME280;61690;51.824;6.306;2023-04-26T06:26:08;101853.97;;;18.67;46.04
73455;BME280;61690;51.824;6.306;2023-04-26T06:28:33;101855.97;;;18.61;45.99
73455;BME280;61690;51.824;6.306;2023-04-26T06:31:00;101848.06;;;18.61;46.51
73455;BME280;61690;51.824;6.306;2023-04-26T06:33:25;101855.13;;;18.61;47.14
73455;BME280;61690;51.824;6.306;2023-04-26T06:35:51;101861.19;;;18.63;47.07
73455;BME280;61690;51.824;6.306;2023-04-26T06:38:16;101856.16;;;18.58;47.02
73455;BME280;61690;51.824;6.306;2023-04-26T06:40:42;101842.88;;;18.60;47.36
73455;BME280;61690;51.824;6.306;2023-04-26T06:43:07;101850.78;;;18.60;47.67
73455;BME280;61690;51.824;6.306;2023-04-26T06:45:33;101847.31;;;18.59;47.73
73455;BME280;61690;51.824;6.306;2023-04-26T06:47:58;101840.25;;;18.60;47.89
73455;BME280;61690;51.824;6.306;2023-04-26T06:50:26;101832.44;;;18.58;48.13
73455;BME280;61690;51.824;6.306;2023-04-26T06:52:53;101841.91;;;18.63;48.21
73455;BME280;61690;51.824;6.306;2023-04-26T06:55:18;101854.38;;;18.59;48.48
73455;BME280;61690;51.824;6.306;2023-04-26T06:57:44;101853.41;;;18.60;48.93
73455;BME280;61690;51.824;6.306;2023-04-26T07:00:13;101850.78;;;18.60;49.25
73455;BME280;61690;51.824;6.306;2023-04-26T07:02:38;101853.41;;;18.60;48.98
73455;BME280;61690;51.824;6.306;2023-04-26T07:05:04;101860.66;;;18.56;49.10
73455;BME280;61690;51.824;6.306;2023-04-26T07:07:29;101852.88;;;18.53;49.42
73455;BME280;61690;51.824;6.306;2023-04-26T07:09:54;101859.88;;;18.54;49.63
73455;BME280;61690;51.824;6.306;2023-04-26T07:12:20;101860.03;;;18.51;49.68
73455;BME280;61690;51.824;6.306;2023-04-26T07:14:45;101858.47;;;18.47;49.56
73455;BME280;61690;51.824;6.306;2023-04-26T07:17:12;101863.16;;;18.40;49.29
73455;BME280;61690;51.824;6.306;2023-04-26T07:19:38;101864.91;;;18.41;49.56
73455;BME280;61690;51.824;6.306;2023-04-26T07:22:04;101865.59;;;18.45;49.58
73455;BME280;61690;51.824;6.306;2023-04-26T07:24:29;101855.06;;;18.45;49.76
73455;BME280;61690;51.824;6.306;2023-04-26T07:26:55;101860.31;;;18.45;49.41
73455;BME280;61690;51.824;6.306;2023-04-26T07:29:20;101865.59;;;18.45;49.78
73455;BME280;61690;51.824;6.306;2023-04-26T07:31:46;101866.31;;;18.49;49.80
73455;BME280;61690;51.824;6.306;2023-04-26T07:34:11;101866.19;;;18.50;49.95
73455;BME280;61690;51.824;6.306;2023-04-26T07:36:37;101868.78;;;18.52;49.61
73455;BME280;61690;51.824;6.306;2023-04-26T07:39:04;101862.72;;;18.50;50.24
73455;BME280;61690;51.824;6.306;2023-04-26T07:41:31;101852.19;;;18.50;50.25
73455;BME280;61690;51.824;6.306;2023-04-26T07:43:56;101860.94;;;18.50;50.23
73455;BME280;61690;51.824;6.306;2023-04-26T07:46:22;101860.94;;;18.50;50.37
73455;BME280;61690;51.824;6.306;2023-04-26T07:48:47;101861.03;;;18.49;50.59
73455;BME280;61690;51.824;6.306;2023-04-26T07:51:12;101851.41;;;18.48;50.34
73455;BME280;61690;51.824;6.306;2023-04-26T07:53:39;101858.00;;;18.02;44.17
73455;BME280;61690;51.824;6.306;2023-04-26T07:56:06;101858.69;;;18.60;45.07
73455;BME280;61690;51.824;6.306;2023-04-26T07:58:32;101859.03;;;19.06;45.17
73455;BME280;61690;51.824;6.306;2023-04-26T08:00:58;101858.00;;;19.42;44.68
73455;BME280;61690;51.824;6.306;2023-04-26T08:03:24;101860.91;;;19.53;44.45
73455;BME280;61690;51.824;6.306;2023-04-26T08:05:51;101861.63;;;19.73;44.86
73455;BME280;61690;51.824;6.306;2023-04-26T08:08:18;101855.19;;;19.94;44.69
73455;BME280;61690;51.824;6.306;2023-04-26T08:10:44;101846.03;;;20.16;44.69
73455;BME280;61690;51.824;6.306;2023-04-26T08:13:10;101847.13;;;20.28;44.55
73455;BME280;61690;51.824;6.306;2023-04-26T08:15:36;101850.69;;;20.43;44.48
73455;BME280;61690;51.824;6.306;2023-04-26T08:18:03;101854.19;;;20.57;44.34
73455;BME280;61690;51.824;6.306;2023-04-26T08:20:29;101858.91;;;20.68;44.63
73455;BME280;61690;51.824;6.306;2023-04-26T08:22:55;101857.34;;;20.94;44.17
73455;BME280;61690;51.824;6.306;2023-04-26T08:25:21;101851.09;;;20.95;44.37
73455;BME280;61690;51.824;6.306;2023-04-26T08:27:47;101854.03;;;21.05;44.39
73455;BME280;61690;51.824;6.306;2023-04-26T08:30:13;101856.72;;;21.20;44.52
73455;BME280;61690;51.824;6.306;2023-04-26T08:32:41;101849.13;;;21.28;44.54
73455;BME280;61690;51.824;6.306;2023-04-26T08:35:07;101862.16;;;21.17;45.13
73455;BME280;61690;51.824;6.306;2023-04-26T08:37:33;101864.41;;;20.94;45.49
73455;BME280;61690;51.824;6.306;2023-04-26T08:39:59;101866.88;;;20.83;46.12
73455;BME280;61690;51.824;6.306;2023-04-26T08:42:26;101871.94;;;20.71;46.00
73455;BME280;61690;51.824;6.306;2023-04-26T08:44:52;101875.88;;;20.64;46.70
73455;BME280;61690;51.824;6.306;2023-04-26T08:47:28;101867.53;;;20.56;46.83
73455;BME280;61690;51.824;6.306;2023-04-26T08:50:00;101880.91;;;20.53;46.89
73455;BME280;61690;51.824;6.306;2023-04-26T08:52:29;101871.38;;;20.50;47.09
73455;BME280;61690;51.824;6.306;2023-04-26T08:54:58;101878.44;;;20.50;47.26
73455;BME280;61690;51.824;6.306;2023-04-26T08:57:24;101873.34;;;20.47;47.42
73455;BME280;61690;51.824;6.306;2023-04-26T08:59:51;101869.09;;;20.44;47.61
73455;BME280;61690;51.824;6.306;2023-04-26T09:02:19;101872.34;;;20.33;47.67
73455;BME280;61690;51.824;6.306;2023-04-26T09:04:47;101873.22;;;20.18;47.70
73455;BME280;61690;51.824;6.306;2023-04-26T09:07:34;101862.41;;;20.07;47.72
73455;BME280;61690;51.824;6.306;2023-04-26T09:10:03;101873.66;;;20.10;47.48
73455;BME280;61690;51.824;6.306;2023-04-26T09:12:30;101868.63;;;20.22;48.04
73455;BME280;61690;51.824;6.306;2023-04-26T09:14:55;101875.44;;;20.26;48.33
73455;BME280;61690;51.824;6.306;2023-04-26T09:17:36;101871.75;;;20.28;48.63
73455;BME280;61690;51.824;6.306;2023-04-26T09:22:51;101863.16;;;20.25;48.66
73455;BME280;61690;51.824;6.306;2023-04-26T09:25:26;101873.56;;;20.12;48.89
73455;BME280;61690;51.824;6.306;2023-04-26T09:27:51;101862.84;;;19.99;48.87
73455;BME280;61690;51.824;6.306;2023-04-26T09:30:17;101858.75;;;19.93;49.21
73455;BME280;61690;51.824;6.306;2023-04-26T09:35:34;101858.00;;;19.91;48.13
73455;BME280;61690;51.824;6.306;2023-04-26T09:38:07;101865.56;;;19.97;48.77
73455;BME280;61690;51.824;6.306;2023-04-26T09:40:44;101863.75;;;19.98;48.43
73455;BME280;61690;51.824;6.306;2023-04-26T09:43:14;101862.91;;;19.97;48.59
73455;BME280;61690;51.824;6.306;2023-04-26T09:45:50;101856.88;;;19.95;48.86
73455;BME280;61690;51.824;6.306;2023-04-26T09:50:45;101855.19;;;19.94;48.85
73455;BME280;61690;51.824;6.306;2023-04-26T09:53:30;101844.78;;;19.91;48.69
73455;BME280;61690;51.824;6.306;2023-04-26T09:56:18;101859.44;;;19.97;48.40
73455;BME280;61690;51.824;6.306;2023-04-26T10:01:17;101852.63;;;19.93;48.96
73455;BME280;61690;51.824;6.306;2023-04-26T10:03:43;101855.28;;;19.93;48.95
73455;BME280;61690;51.824;6.306;2023-04-26T10:06:10;101854.31;;;19.94;49.01
73455;BME280;61690;51.824;6.306;2023-04-26T10:08:38;101852.44;;;19.96;49.03
73455;BME280;61690;51.824;6.306;2023-04-26T10:11:04;101855.09;;;19.96;48.90
73455;BME280;61690;51.824;6.306;2023-04-26T10:13:31;101851.44;;;19.98;49.05
73455;BME280;61690;51.824;6.306;2023-04-26T10:15:59;101847.06;;;19.97;49.15
73455;BME280;61690;51.824;6.306;2023-04-26T10:18:25;101851.75;;;19.76;49.06
73455;BME280;61690;51.824;6.306;2023-04-26T10:20:53;101848.44;;;19.73;48.80
73455;BME280;61690;51.824;6.306;2023-04-26T10:23:21;101847.44;;;19.75;48.22
73455;BME280;61690;51.824;6.306;2023-04-26T10:25:50;101844.44;;;19.66;48.19
73455;BME280;61690;51.824;6.306;2023-04-26T10:28:17;101840.22;;;19.62;48.05
73455;BME280;61690;51.824;6.306;2023-04-26T10:31:08;101842.28;;;19.56;47.94
73455;BME280;61690;51.824;6.306;2023-04-26T10:33:35;101840.81;;;19.51;48.05
73455;BME280;61690;51.824;6.306;2023-04-26T10:36:06;101842.78;;;19.47;48.00
73455;BME280;61690;51.824;6.306;2023-04-26T10:38:33;101835.13;;;19.43;48.03
73455;BME280;61690;51.824;6.306;2023-04-26T10:41:28;101839.59;;;19.40;47.57
73455;BME280;61690;51.824;6.306;2023-04-26T10:43:55;101839.09;;;19.34;47.80
73455;BME280;61690;51.824;6.306;2023-04-26T10:46:39;101840.72;;;19.36;47.22
73455;BME280;61690;51.824;6.306;2023-04-26T10:49:12;101838.19;;;19.35;47.13
73455;BME280;61690;51.824;6.306;2023-04-26T10:51:38;101837.56;;;19.30;47.57
73455;BME280;61690;51.824;6.306;2023-04-26T10:54:04;101832.44;;;19.27;47.11
73455;BME280;61690;51.824;6.306;2023-04-26T10:59:09;101837.03;;;19.23;46.93
73455;BME280;61690;51.824;6.306;2023-04-26T11:01:35;101832.78;;;19.20;46.87
73455;BME280;61690;51.824;6.306;2023-04-26T11:04:11;101834.63;;;19.18;46.89
73455;BME280;61690;51.824;6.306;2023-04-26T11:06:50;101835.56;;;19.17;46.73
73455;BME280;61690;51.824;6.306;2023-04-26T11:09:38;101844.50;;;19.15;46.77
73455;BME280;61690;51.824;6.306;2023-04-26T11:12:11;101836.66;;;19.13;46.72
73455;BME280;61690;51.824;6.306;2023-04-26T11:14:37;101842.97;;;19.11;46.97
73455;BME280;61690;51.824;6.306;2023-04-26T11:17:07;101842.13;;;19.10;46.25
73455;BME280;61690;51.824;6.306;2023-04-26T11:19:32;101843.09;;;19.08;46.60
73455;BME280;61690;51.824;6.306;2023-04-26T11:21:59;101837.94;;;19.06;46.47
73455;BME280;61690;51.824;6.306;2023-04-26T11:24:33;101839.00;;;19.02;46.18
73455;BME280;61690;51.824;6.306;2023-04-26T11:27:10;101835.44;;;19.03;46.21
73455;BME280;61690;51.824;6.306;2023-04-26T11:29:36;101840.78;;;19.02;46.21
73455;BME280;61690;51.824;6.306;2023-04-26T11:32:01;101839.94;;;19.01;46.56
73455;BME280;61690;51.824;6.306;2023-04-26T11:36:55;101832.97;;;19.00;45.93
73455;BME280;61690;51.824;6.306;2023-04-26T11:39:22;101837.47;;;18.98;46.13
73455;BME280;61690;51.824;6.306;2023-04-26T11:41:49;101838.50;;;18.95;46.31
73455;BME280;61690;51.824;6.306;2023-04-26T11:44:19;101832.19;;;18.98;46.22
73455;BME280;61690;51.824;6.306;2023-04-26T11:46:47;101828.97;;;18.93;46.15
73455;BME280;61690;51.824;6.306;2023-04-26T11:49:14;101828.97;;;18.93;46.14
73455;BME280;61690;51.824;6.306;2023-04-26T11:51:40;101830.66;;;18.94;45.75
73455;BME280;61690;51.824;6.306;2023-04-26T11:54:07;101836.00;;;18.92;45.71
73455;BME280;61690;51.824;6.306;2023-04-26T11:56:33;101823.97;;;18.87;46.29
73455;BME280;61690;51.824;6.306;2023-04-26T11:58:58;101823.84;;;18.90;45.93
73455;BME280;61690;51.824;6.306;2023-04-26T12:01:28;101824.84;;;18.87;45.71
73455;BME280;61690;51.824;6.306;2023-04-26T12:03:57;101826.53;;;18.88;45.56
73455;BME280;61690;51.824;6.306;2023-04-26T12:06:41;101830.03;;;18.89;45.94
73455;BME280;61690;51.824;6.306;2023-04-26T12:09:06;101832.00;;;18.85;45.67
73455;BME280;61690;51.824;6.306;2023-04-26T12:11:35;101828.47;;;18.85;46.06
73455;BME280;61690;51.824;6.306;2023-04-26T12:14:01;101822.28;;;18.86;46.15
73455;BME280;61690;51.824;6.306;2023-04-26T12:16:28;101832.06;;;18.84;45.59
73455;BME280;61690;51.824;6.306;2023-04-26T12:18:54;101829.44;;;18.84;45.69
73455;BME280;61690;51.824;6.306;2023-04-26T12:21:21;101826.72;;;18.85;45.76
73455;BME280;61690;51.824;6.306;2023-04-26T12:23:47;101828.41;;;18.86;45.81
73455;BME280;61690;51.824;6.306;2023-04-26T12:26:13;101826.47;;;18.90;45.46
73455;BME280;61690;51.824;6.306;2023-04-26T12:28:42;101829.34;;;19.03;45.43
73455;BME280;61690;51.824;6.306;2023-04-26T12:31:08;101827.81;;;19.14;45.39
73455;BME280;61690;51.824;6.306;2023-04-26T12:33:34;101834.16;;;19.28;44.72
73455;BME280;61690;51.824;6.306;2023-04-26T12:36:10;101838.69;;;19.42;44.68
73455;BME280;61690;51.824;6.306;2023-04-26T12:38:37;101832.50;;;19.58;45.27
73455;BME280;61690;51.824;6.306;2023-04-26T12:41:03;101833.56;;;19.72;45.45
73455;BME280;61690;51.824;6.306;2023-04-26T12:43:29;101833.88;;;19.82;45.33
73455;BME280;61690;51.824;6.306;2023-04-26T12:45:54;101831.44;;;19.94;44.95
73455;BME280;61690;51.824;6.306;2023-04-26T12:48:20;101827.47;;;20.02;44.91
73455;BME280;61690;51.824;6.306;2023-04-26T12:50:45;101816.59;;;20.08;45.01
73455;BME280;61690;51.824;6.306;2023-04-26T12:53:11;101825.28;;;20.10;45.13
73455;BME280;61690;51.824;6.306;2023-04-26T12:55:37;101821.88;;;20.08;45.36
73455;BME280;61690;51.824;6.306;2023-04-26T12:58:02;101824.41;;;20.09;45.18
73455;BME280;61690;51.824;6.306;2023-04-26T13:00:28;101822.34;;;20.14;45.35
73455;BME280;61690;51.824;6.306;2023-04-26T13:02:55;101821.91;;;20.22;45.20
73455;BME280;61690;51.824;6.306;2023-04-26T13:05:21;101818.50;;;20.20;45.42